sensor_id;sensor_type;location;lat;lon;timestamp;temperature;humidity
49465;DHT22;35358;49.342;8.802;2022-12-07T00:01:39;3.40;99.90
49465;DHT22;35358;49.342;8.802;2022-12-07T00:04:11;3.40;99.90
49465;DHT22;35358;49.342;8.802;2022-12-07T00:06:42;3.30;99.90
49465;DHT22;35358;49.342;8.802;2022-12-07T00:09:13;3.30;99.90
49465;DHT22;35358;49.342;8.802;2022-12-07T00:11:39;3.30;99.90
49465;DHT22;35358;49.342;8.802;2022-12-07T00:14:08;3.30;99.90
49465;DHT22;35358;49.342;8.802;2022-12-07T00:16:35;3.30;99.90
49465;DHT22;35358;49.342;8.802;2022-12-07T00:19:09;3.40;99.90
49465;DHT22;35358;49.342;8.802;2022-12-07T00:21:36;3.30;99.90
49465;DHT22;35358;49.342;8.802;2022-12-07T00:24:03;3.30;99.90
49465;DHT22;35358;49.342;8.802;2022-12-07T00:26:36;3.40;99.90
49465;DHT22;35358;49.342;8.802;2022-12-07T00:29:09;3.40;99.90
49465;DHT22;35358;49.342;8.802;2022-12-07T00:31:39;3.30;99.90
49465;DHT22;35358;49.342;8.802;2022-12-07T00:34:12;3.40;99.90
49465;DHT22;35358;49.342;8.802;2022-12-07T00:36:41;3.40;99.90
49465;DHT22;35358;49.342;8.802;2022-12-07T00:39:06;3.40;99.90
49465;DHT22;35358;49.342;8.802;2022-12-07T00:41:32;3.30;99.90
49465;DHT22;35358;49.342;8.802;2022-12-07T00:43:58;3.30;99.90
49465;DHT22;35358;49.342;8.802;2022-12-07T00:46:24;3.40;99.90
49465;DHT22;35358;49.342;8.802;2022-12-07T00:48:51;3.50;99.90
49465;DHT22;35358;49.342;8.802;2022-12-07T00:51:19;3.50;99.90
49465;DHT22;35358;49.342;8.802;2022-12-07T00:53:45;3.60;99.90
49465;DHT22;35358;49.342;8.802;2022-12-07T00:56:16;3.70;99.90
49465;DHT22;35358;49.342;8.802;2022-12-07T00:58:42;3.70;99.90
49465;DHT22;35358;49.342;8.802;2022-12-07T01:01:11;3.80;99.90
49465;DHT22;35358;49.342;8.802;2022-12-07T01:03:37;3.80;99.90
49465;DHT22;35358;49.342;8.802;2022-12-07T01:06:04;3.70;99.90
49465;DHT22;35358;49.342;8.802;2022-12-07T01:08:34;3.70;99.90
49465;DHT22;35358;49.342;8.802;2022-12-07T01:11:04;3.60;99.90
49465;DHT22;35358;49.342;8.802;2022-12-07T01:13:32;3.70;99.90
49465;DHT22;35358;49.342;8.802;2022-12-07T01:16:03;3.70;99.90
49465;DHT22;35358;49.342;8.802;2022-12-07T01:18:33;3.70;99.90
49465;DHT22;35358;49.342;8.802;2022-12-07T01:21:16;3.70;99.90
49465;DHT22;35358;49.342;8.802;2022-12-07T01:23:43;3.70;99.90
49465;DHT22;35358;49.342;8.802;2022-12-07T01:26:15;3.60;99.90
49465;DHT22;35358;49.342;8.802;2022-12-07T01:28:41;3.70;99.90
49465;DHT22;35358;49.342;8.802;2022-12-07T01:31:15;3.70;99.90
49465;DHT22;35358;49.342;8.802;2022-12-07T01:33:42;3.70;99.90
49465;DHT22;35358;49.342;8.802;2022-12-07T01:36:23;3.60;99.90
49465;DHT22;35358;49.342;8.802;2022-12-07T01:38:52;3.60;99.90
49465;DHT22;35358;49.342;8.802;2022-12-07T01:41:20;3.60;99.90
49465;DHT22;35358;49.342;8.802;2022-12-07T01:44:12;3.70;99.90
49465;DHT22;35358;49.342;8.802;2022-12-07T01:46:38;3.70;99.90
49465;DHT22;35358;49.342;8.802;2022-12-07T01:49:11;3.60;99.90
49465;DHT22;35358;49.342;8.802;2022-12-07T01:51:42;3.60;99.90
49465;DHT22;35358;49.342;8.802;2022-12-07T01:54:10;3.60;99.90
49465;DHT22;35358;49.342;8.802;2022-12-07T01:56:38;3.70;99.90
49465;DHT22;35358;49.342;8.802;2022-12-07T01:59:08;3.60;99.90
49465;DHT22;35358;49.342;8.802;2022-12-07T02:01:38;3.70;99.90
49465;DHT22;35358;49.342;8.802;2022-12-07T02:04:06;3.70;99.90
49465;DHT22;35358;49.342;8.802;2022-12-07T02:06:32;3.70;99.90
49465;DHT22;35358;49.342;8.802;2022-12-07T02:09:01;3.70;99.90
49465;DHT22;35358;49.342;8.802;2022-12-07T02:11:26;3.70;99.90
49465;DHT22;35358;49.342;8.802;2022-12-07T02:13:52;3.70;99.90
49465;DHT22;35358;49.342;8.802;2022-12-07T02:17:12;3.80;99.90
49465;DHT22;35358;49.342;8.802;2022-12-07T02:27:47;3.70;99.90
49465;DHT22;35358;49.342;8.802;2022-12-07T02:30:20;3.70;99.90
49465;DHT22;35358;49.342;8.802;2022-12-07T02:33:11;3.70;99.90
49465;DHT22;35358;49.342;8.802;2022-12-07T02:35:56;3.60;99.90
49465;DHT22;35358;49.342;8.802;2022-12-07T02:43:26;3.40;99.90
49465;DHT22;35358;49.342;8.802;2022-12-07T02:46:06;3.50;99.90
49465;DHT22;35358;49.342;8.802;2022-12-07T02:48:37;3.40;99.90
49465;DHT22;35358;49.342;8.802;2022-12-07T02:51:08;3.30;99.90
49465;DHT22;35358;49.342;8.802;2022-12-07T02:53:43;3.40;99.90
49465;DHT22;35358;49.342;8.802;2022-12-07T03:04:52;3.40;99.90
49465;DHT22;35358;49.342;8.802;2022-12-07T03:07:45;3.40;99.90
49465;DHT22;35358;49.342;8.802;2022-12-07T03:10:28;3.50;99.90
49465;DHT22;35358;49.342;8.802;2022-12-07T03:15:33;3.40;99.90
49465;DHT22;35358;49.342;8.802;2022-12-07T03:18:02;3.40;99.90
49465;DHT22;35358;49.342;8.802;2022-12-07T03:20:32;3.50;99.90
49465;DHT22;35358;49.342;8.802;2022-12-07T03:23:04;3.50;99.90
49465;DHT22;35358;49.342;8.802;2022-12-07T03:25:37;3.40;99.90
49465;DHT22;35358;49.342;8.802;2022-12-07T03:28:06;3.50;99.90
49465;DHT22;35358;49.342;8.802;2022-12-07T03:33:07;3.60;99.90
49465;DHT22;35358;49.342;8.802;2022-12-07T03:38:25;3.70;99.90
49465;DHT22;35358;49.342;8.802;2022-12-07T03:43:30;3.70;99.90
49465;DHT22;35358;49.342;8.802;2022-12-07T03:49:18;3.60;99.90
49465;DHT22;35358;49.342;8.802;2022-12-07T03:55:13;3.50;99.90
49465;DHT22;35358;49.342;8.802;2022-12-07T03:57:17;3.60;99.90
49465;DHT22;35358;49.342;8.802;2022-12-07T03:59:44;3.60;99.90
49465;DHT22;35358;49.342;8.802;2022-12-07T04:02:14;3.60;99.90
49465;DHT22;35358;49.342;8.802;2022-12-07T04:04:41;3.60;99.90
49465;DHT22;35358;49.342;8.802;2022-12-07T04:07:12;3.50;99.90
49465;DHT22;35358;49.342;8.802;2022-12-07T04:09:40;3.50;99.90
49465;DHT22;35358;49.342;8.802;2022-12-07T04:12:06;3.50;99.90
49465;DHT22;35358;49.342;8.802;2022-12-07T04:14:32;3.60;99.90
49465;DHT22;35358;49.342;8.802;2022-12-07T04:16:58;3.50;99.90
49465;DHT22;35358;49.342;8.802;2022-12-07T04:19:31;3.60;99.90
49465;DHT22;35358;49.342;8.802;2022-12-07T04:22:01;3.60;99.90
49465;DHT22;35358;49.342;8.802;2022-12-07T04:24:30;3.60;99.90
49465;DHT22;35358;49.342;8.802;2022-12-07T04:26:55;3.60;99.90
49465;DHT22;35358;49.342;8.802;2022-12-07T04:29:26;3.70;99.90
49465;DHT22;35358;49.342;8.802;2022-12-07T04:31:52;3.70;99.90
49465;DHT22;35358;49.342;8.802;2022-12-07T04:34:18;3.60;99.90
49465;DHT22;35358;49.342;8.802;2022-12-07T04:36:46;3.60;99.90
49465;DHT22;35358;49.342;8.802;2022-12-07T04:39:22;3.50;99.90
49465;DHT22;35358;49.342;8.802;2022-12-07T04:41:51;3.50;99.90
49465;DHT22;35358;49.342;8.802;2022-12-07T04:44:20;3.50;99.90
49465;DHT22;35358;49.342;8.802;2022-12-07T04:46:46;3.60;99.90
49465;DHT22;35358;49.342;8.802;2022-12-07T04:49:13;3.60;99.90
49465;DHT22;35358;49.342;8.802;2022-12-07T04:51:41;3.50;99.90
49465;DHT22;35358;49.342;8.802;2022-12-07T04:54:07;3.60;99.90
49465;DHT22;35358;49.342;8.802;2022-12-07T04:56:34;3.60;99.90
49465;DHT22;35358;49.342;8.802;2022-12-07T04:59:01;3.60;99.90
49465;DHT22;35358;49.342;8.802;2022-12-07T05:01:27;3.70;99.90
49465;DHT22;35358;49.342;8.802;2022-12-07T05:03:57;3.70;99.90
49465;DHT22;35358;49.342;8.802;2022-12-07T05:06:23;3.80;99.90
49465;DHT22;35358;49.342;8.802;2022-12-07T05:08:49;3.80;99.90
49465;DHT22;35358;49.342;8.802;2022-12-07T05:11:15;3.80;99.90
49465;DHT22;35358;49.342;8.802;2022-12-07T05:14:03;3.60;99.90
49465;DHT22;35358;49.342;8.802;2022-12-07T05:16:29;3.60;99.90
49465;DHT22;35358;49.342;8.802;2022-12-07T05:18:55;3.60;99.90
49465;DHT22;35358;49.342;8.802;2022-12-07T05:21:21;3.60;99.90
49465;DHT22;35358;49.342;8.802;2022-12-07T05:23:48;3.60;99.90
49465;DHT22;35358;49.342;8.802;2022-12-07T05:26:13;3.60;99.90
49465;DHT22;35358;49.342;8.802;2022-12-07T05:28:39;3.50;99.90
49465;DHT22;35358;49.342;8.802;2022-12-07T05:31:04;3.50;99.90
49465;DHT22;35358;49.342;8.802;2022-12-07T05:33:30;3.40;99.90
49465;DHT22;35358;49.342;8.802;2022-12-07T05:35:55;3.40;99.90
49465;DHT22;35358;49.342;8.802;2022-12-07T05:38:23;3.60;99.90
49465;DHT22;35358;49.342;8.802;2022-12-07T05:40:50;3.60;99.90
49465;DHT22;35358;49.342;8.802;2022-12-07T05:43:16;3.60;99.90
49465;DHT22;35358;49.342;8.802;2022-12-07T05:45:41;3.70;99.90
49465;DHT22;35358;49.342;8.802;2022-12-07T05:48:09;3.80;99.90
49465;DHT22;35358;49.342;8.802;2022-12-07T05:50:34;3.70;99.90
49465;DHT22;35358;49.342;8.802;2022-12-07T05:53:02;3.70;99.90
49465;DHT22;35358;49.342;8.802;2022-12-07T05:55:28;3.60;99.90
49465;DHT22;35358;49.342;8.802;2022-12-07T05:57:56;3.60;99.90
49465;DHT22;35358;49.342;8.802;2022-12-07T06:00:40;3.70;99.90
49465;DHT22;35358;49.342;8.802;2022-12-07T06:03:06;3.80;99.90
49465;DHT22;35358;49.342;8.802;2022-12-07T06:05:34;3.70;99.90
49465;DHT22;35358;49.342;8.802;2022-12-07T06:07:59;3.70;99.90
49465;DHT22;35358;49.342;8.802;2022-12-07T06:10:25;3.70;99.90
49465;DHT22;35358;49.342;8.802;2022-12-07T06:12:51;3.70;99.90
49465;DHT22;35358;49.342;8.802;2022-12-07T06:15:16;3.70;99.90
49465;DHT22;35358;49.342;8.802;2022-12-07T06:17:44;3.60;99.90
49465;DHT22;35358;49.342;8.802;2022-12-07T06:20:09;3.70;99.90
49465;DHT22;35358;49.342;8.802;2022-12-07T06:22:35;3.80;99.90
49465;DHT22;35358;49.342;8.802;2022-12-07T06:25:01;3.70;99.90
49465;DHT22;35358;49.342;8.802;2022-12-07T06:27:26;3.80;99.90
49465;DHT22;35358;49.342;8.802;2022-12-07T06:29:52;3.60;99.90
49465;DHT22;35358;49.342;8.802;2022-12-07T06:32:22;3.60;99.90
49465;DHT22;35358;49.342;8.802;2022-12-07T06:34:47;3.70;99.90
49465;DHT22;35358;49.342;8.802;2022-12-07T06:37:13;3.60;99.90
49465;DHT22;35358;49.342;8.802;2022-12-07T06:39:41;3.70;99.90
49465;DHT22;35358;49.342;8.802;2022-12-07T06:42:06;3.70;99.90
49465;DHT22;35358;49.342;8.802;2022-12-07T06:44:32;3.70;99.90
49465;DHT22;35358;49.342;8.802;2022-12-07T06:46:58;3.70;99.90
49465;DHT22;35358;49.342;8.802;2022-12-07T06:49:23;3.70;99.90
49465;DHT22;35358;49.342;8.802;2022-12-07T06:51:49;3.70;99.90
49465;DHT22;35358;49.342;8.802;2022-12-07T06:54:15;3.80;99.90
49465;DHT22;35358;49.342;8.802;2022-12-07T06:56:43;3.70;99.90
49465;DHT22;35358;49.342;8.802;2022-12-07T06:59:10;3.80;99.90
49465;DHT22;35358;49.342;8.802;2022-12-07T07:01:35;3.80;99.90
49465;DHT22;35358;49.342;8.802;2022-12-07T07:04:04;3.90;99.90
49465;DHT22;35358;49.342;8.802;2022-12-07T07:06:32;3.90;99.90
49465;DHT22;35358;49.342;8.802;2022-12-07T07:09:02;3.90;99.90
49465;DHT22;35358;49.342;8.802;2022-12-07T07:11:28;3.90;99.90
49465;DHT22;35358;49.342;8.802;2022-12-07T07:13:54;3.80;99.90
49465;DHT22;35358;49.342;8.802;2022-12-07T07:16:22;3.80;99.90
49465;DHT22;35358;49.342;8.802;2022-12-07T07:18:48;3.70;99.90
49465;DHT22;35358;49.342;8.802;2022-12-07T07:21:15;3.70;99.90
49465;DHT22;35358;49.342;8.802;2022-12-07T07:23:43;3.70;99.90
49465;DHT22;35358;49.342;8.802;2022-12-07T07:26:09;3.70;99.90
49465;DHT22;35358;49.342;8.802;2022-12-07T07:28:35;3.80;99.90
49465;DHT22;35358;49.342;8.802;2022-12-07T07:31:03;3.80;99.90
49465;DHT22;35358;49.342;8.802;2022-12-07T07:33:35;3.90;99.90
49465;DHT22;35358;49.342;8.802;2022-12-07T07:36:03;3.80;99.90
49465;DHT22;35358;49.342;8.802;2022-12-07T07:38:34;3.90;99.90
49465;DHT22;35358;49.342;8.802;2022-12-07T07:40:59;3.80;99.90
49465;DHT22;35358;49.342;8.802;2022-12-07T07:43:25;3.90;99.90
49465;DHT22;35358;49.342;8.802;2022-12-07T07:45:50;3.90;99.90
49465;DHT22;35358;49.342;8.802;2022-12-07T07:48:21;3.90;99.90
49465;DHT22;35358;49.342;8.802;2022-12-07T07:50:48;3.90;99.90
49465;DHT22;35358;49.342;8.802;2022-12-07T07:53:16;3.90;99.90
49465;DHT22;35358;49.342;8.802;2022-12-07T07:55:41;3.90;99.90
49465;DHT22;35358;49.342;8.802;2022-12-07T07:58:09;3.90;99.90
49465;DHT22;35358;49.342;8.802;2022-12-07T08:00:35;4.00;99.90
49465;DHT22;35358;49.342;8.802;2022-12-07T08:03:02;4.00;99.90
49465;DHT22;35358;49.342;8.802;2022-12-07T08:05:30;4.00;99.90
49465;DHT22;35358;49.342;8.802;2022-12-07T08:07:58;4.10;99.90
49465;DHT22;35358;49.342;8.802;2022-12-07T08:10:24;4.00;99.90
49465;DHT22;35358;49.342;8.802;2022-12-07T08:12:50;4.10;99.90
49465;DHT22;35358;49.342;8.802;2022-12-07T08:15:36;4.10;99.90
49465;DHT22;35358;49.342;8.802;2022-12-07T08:18:02;4.00;99.90
49465;DHT22;35358;49.342;8.802;2022-12-07T08:20:30;4.00;99.90
49465;DHT22;35358;49.342;8.802;2022-12-07T08:22:57;4.00;99.90
49465;DHT22;35358;49.342;8.802;2022-12-07T08:25:25;4.00;99.90
49465;DHT22;35358;49.342;8.802;2022-12-07T08:27:53;4.10;99.90
49465;DHT22;35358;49.342;8.802;2022-12-07T08:30:21;4.20;99.90
49465;DHT22;35358;49.342;8.802;2022-12-07T08:32:47;4.20;99.90
49465;DHT22;35358;49.342;8.802;2022-12-07T08:35:15;4.30;99.90
49465;DHT22;35358;49.342;8.802;2022-12-07T08:37:43;4.30;99.90
49465;DHT22;35358;49.342;8.802;2022-12-07T08:40:11;4.30;99.90
49465;DHT22;35358;49.342;8.802;2022-12-07T08:42:41;4.30;99.90
49465;DHT22;35358;49.342;8.802;2022-12-07T08:45:11;4.20;99.90
49465;DHT22;35358;49.342;8.802;2022-12-07T08:50:20;4.30;99.90
49465;DHT22;35358;49.342;8.802;2022-12-07T08:52:49;4.30;99.90
49465;DHT22;35358;49.342;8.802;2022-12-07T08:55:16;4.20;99.90
49465;DHT22;35358;49.342;8.802;2022-12-07T08:57:42;4.20;99.90
49465;DHT22;35358;49.342;8.802;2022-12-07T09:00:11;4.20;99.90
49465;DHT22;35358;49.342;8.802;2022-12-07T09:02:37;4.20;99.90
49465;DHT22;35358;49.342;8.802;2022-12-07T09:05:03;4.20;99.90
49465;DHT22;35358;49.342;8.802;2022-12-07T09:07:32;4.30;99.90
49465;DHT22;35358;49.342;8.802;2022-12-07T09:10:00;4.20;99.90
49465;DHT22;35358;49.342;8.802;2022-12-07T09:12:28;4.30;99.90
49465;DHT22;35358;49.342;8.802;2022-12-07T09:14:54;4.30;99.90
49465;DHT22;35358;49.342;8.802;2022-12-07T09:17:20;4.30;99.90
49465;DHT22;35358;49.342;8.802;2022-12-07T09:19:46;4.20;99.90
49465;DHT22;35358;49.342;8.802;2022-12-07T09:22:11;4.20;99.90
49465;DHT22;35358;49.342;8.802;2022-12-07T09:24:42;4.20;99.90
49465;DHT22;35358;49.342;8.802;2022-12-07T09:27:08;4.20;99.90
49465;DHT22;35358;49.342;8.802;2022-12-07T09:29:36;4.20;99.90
49465;DHT22;35358;49.342;8.802;2022-12-07T09:32:02;4.20;99.90
49465;DHT22;35358;49.342;8.802;2022-12-07T09:34:30;4.30;99.90
49465;DHT22;35358;49.342;8.802;2022-12-07T09:36:57;4.30;99.90
49465;DHT22;35358;49.342;8.802;2022-12-07T09:39:25;4.30;99.90
49465;DHT22;35358;49.342;8.802;2022-12-07T09:41:52;4.20;99.90
49465;DHT22;35358;49.342;8.802;2022-12-07T09:44:24;4.30;99.90
49465;DHT22;35358;49.342;8.802;2022-12-07T09:46:51;4.30;99.90
49465;DHT22;35358;49.342;8.802;2022-12-07T09:49:20;4.30;99.90
49465;DHT22;35358;49.342;8.802;2022-12-07T09:51:46;4.40;99.90
49465;DHT22;35358;49.342;8.802;2022-12-07T09:54:15;4.30;99.90
49465;DHT22;35358;49.342;8.802;2022-12-07T09:56:41;4.50;99.90
49465;DHT22;35358;49.342;8.802;2022-12-07T09:59:13;4.50;99.90
49465;DHT22;35358;49.342;8.802;2022-12-07T10:01:41;4.50;99.90
49465;DHT22;35358;49.342;8.802;2022-12-07T10:04:22;4.50;99.90
49465;DHT22;35358;49.342;8.802;2022-12-07T10:06:49;4.40;99.90
49465;DHT22;35358;49.342;8.802;2022-12-07T10:09:18;4.40;99.90
49465;DHT22;35358;49.342;8.802;2022-12-07T10:12:02;4.50;99.90
49465;DHT22;35358;49.342;8.802;2022-12-07T10:14:34;4.70;99.90
49465;DHT22;35358;49.342;8.802;2022-12-07T10:17:01;4.60;99.90
49465;DHT22;35358;49.342;8.802;2022-12-07T10:19:32;4.80;99.90
49465;DHT22;35358;49.342;8.802;2022-12-07T10:22:11;4.80;99.90
49465;DHT22;35358;49.342;8.802;2022-12-07T10:24:38;4.80;99.90
49465;DHT22;35358;49.342;8.802;2022-12-07T10:27:26;4.80;99.90
49465;DHT22;35358;49.342;8.802;2022-12-07T10:29:55;4.70;99.90
49465;DHT22;35358;49.342;8.802;2022-12-07T10:32:32;4.70;99.90
49465;DHT22;35358;49.342;8.802;2022-12-07T10:37:49;4.70;99.90
49465;DHT22;35358;49.342;8.802;2022-12-07T10:40:34;5.00;99.90
49465;DHT22;35358;49.342;8.802;2022-12-07T10:45:30;5.80;99.90
49465;DHT22;35358;49.342;8.802;2022-12-07T10:48:01;5.90;99.90
49465;DHT22;35358;49.342;8.802;2022-12-07T10:54:21;5.50;99.90
49465;DHT22;35358;49.342;8.802;2022-12-07T11:00:08;5.90;99.90
49465;DHT22;35358;49.342;8.802;2022-12-07T11:05:39;6.00;99.90
49465;DHT22;35358;49.342;8.802;2022-12-07T11:08:38;6.20;99.90
49465;DHT22;35358;49.342;8.802;2022-12-07T11:11:23;5.80;99.90
49465;DHT22;35358;49.342;8.802;2022-12-07T11:13:59;6.20;99.90
49465;DHT22;35358;49.342;8.802;2022-12-07T11:16:50;6.40;99.90
49465;DHT22;35358;49.342;8.802;2022-12-07T11:22:16;5.40;99.90
49465;DHT22;35358;49.342;8.802;2022-12-07T11:24:54;5.30;99.90
49465;DHT22;35358;49.342;8.802;2022-12-07T11:27:34;5.30;99.90
49465;DHT22;35358;49.342;8.802;2022-12-07T11:30:36;5.30;99.90
49465;DHT22;35358;49.342;8.802;2022-12-07T11:38:11;5.40;99.90
49465;DHT22;35358;49.342;8.802;2022-12-07T11:40:40;5.30;99.90
49465;DHT22;35358;49.342;8.802;2022-12-07T11:50:57;5.50;99.90
49465;DHT22;35358;49.342;8.802;2022-12-07T11:53:49;5.40;99.90
49465;DHT22;35358;49.342;8.802;2022-12-07T11:56:20;5.50;99.90
49465;DHT22;35358;49.342;8.802;2022-12-07T11:59:13;5.30;99.90
49465;DHT22;35358;49.342;8.802;2022-12-07T12:02:20;5.50;99.90
49465;DHT22;35358;49.342;8.802;2022-12-07T12:05:18;5.50;99.90
49465;DHT22;35358;49.342;8.802;2022-12-07T12:07:46;5.50;99.90
49465;DHT22;35358;49.342;8.802;2022-12-07T12:10:23;5.30;99.90
49465;DHT22;35358;49.342;8.802;2022-12-07T12:13:20;5.30;99.90
49465;DHT22;35358;49.342;8.802;2022-12-07T12:18:36;5.30;99.90
49465;DHT22;35358;49.342;8.802;2022-12-07T12:21:15;5.40;99.90
49465;DHT22;35358;49.342;8.802;2022-12-07T12:23:51;5.30;99.90
49465;DHT22;35358;49.342;8.802;2022-12-07T12:26:23;5.30;99.90
49465;DHT22;35358;49.342;8.802;2022-12-07T12:29:27;5.30;99.90
49465;DHT22;35358;49.342;8.802;2022-12-07T12:32:21;5.30;99.90
49465;DHT22;35358;49.342;8.802;2022-12-07T12:42:47;5.30;99.90
49465;DHT22;35358;49.342;8.802;2022-12-07T12:45:30;5.30;99.90
49465;DHT22;35358;49.342;8.802;2022-12-07T12:58:25;5.30;99.90
49465;DHT22;35358;49.342;8.802;2022-12-07T13:01:33;5.30;99.90
49465;DHT22;35358;49.342;8.802;2022-12-07T13:04:02;5.30;99.90
49465;DHT22;35358;49.342;8.802;2022-12-07T13:06:35;5.30;99.90
49465;DHT22;35358;49.342;8.802;2022-12-07T13:09:15;5.30;99.90
49465;DHT22;35358;49.342;8.802;2022-12-07T13:11:44;5.30;99.90
49465;DHT22;35358;49.342;8.802;2022-12-07T13:14:52;5.30;99.90
49465;DHT22;35358;49.342;8.802;2022-12-07T13:20:00;5.30;99.90
49465;DHT22;35358;49.342;8.802;2022-12-07T13:28:14;5.30;99.90
49465;DHT22;35358;49.342;8.802;2022-12-07T13:31:18;5.30;99.90
49465;DHT22;35358;49.342;8.802;2022-12-07T13:33:47;5.30;99.90
49465;DHT22;35358;49.342;8.802;2022-12-07T13:38:59;5.30;99.90
49465;DHT22;35358;49.342;8.802;2022-12-07T13:41:27;5.20;99.90
49465;DHT22;35358;49.342;8.802;2022-12-07T13:44:08;5.20;99.90
49465;DHT22;35358;49.342;8.802;2022-12-07T13:49:23;5.30;99.90
49465;DHT22;35358;49.342;8.802;2022-12-07T13:51:53;5.30;99.90
49465;DHT22;35358;49.342;8.802;2022-12-07T13:54:20;5.30;99.90
49465;DHT22;35358;49.342;8.802;2022-12-07T13:56:51;5.20;99.90
49465;DHT22;35358;49.342;8.802;2022-12-07T13:59:25;5.20;99.90
49465;DHT22;35358;49.342;8.802;2022-12-07T14:01:52;5.20;99.90
49465;DHT22;35358;49.342;8.802;2022-12-07T14:04:36;5.20;99.90
49465;DHT22;35358;49.342;8.802;2022-12-07T14:07:26;5.20;99.90
49465;DHT22;35358;49.342;8.802;2022-12-07T14:12:21;5.20;99.90
49465;DHT22;35358;49.342;8.802;2022-12-07T14:14:48;5.20;99.90
49465;DHT22;35358;49.342;8.802;2022-12-07T14:17:22;5.20;99.90
49465;DHT22;35358;49.342;8.802;2022-12-07T14:22:37;5.20;99.90
49465;DHT22;35358;49.342;8.802;2022-12-07T14:25:19;5.20;99.90
49465;DHT22;35358;49.342;8.802;2022-12-07T14:30:21;5.30;99.90
49465;DHT22;35358;49.342;8.802;2022-12-07T14:32:51;5.20;99.90
49465;DHT22;35358;49.342;8.802;2022-12-07T14:35:18;5.20;99.90
49465;DHT22;35358;49.342;8.802;2022-12-07T14:37:48;5.20;99.90
49465;DHT22;35358;49.342;8.802;2022-12-07T14:42:45;5.20;99.90
49465;DHT22;35358;49.342;8.802;2022-12-07T14:45:14;5.20;99.90
49465;DHT22;35358;49.342;8.802;2022-12-07T14:47:40;5.30;99.90
49465;DHT22;35358;49.342;8.802;2022-12-07T14:50:06;5.20;99.90
49465;DHT22;35358;49.342;8.802;2022-12-07T14:52:33;5.20;99.90
49465;DHT22;35358;49.342;8.802;2022-12-07T14:54:58;5.20;99.90
49465;DHT22;35358;49.342;8.802;2022-12-07T14:57:24;5.20;99.90
49465;DHT22;35358;49.342;8.802;2022-12-07T14:59:49;5.20;99.90
49465;DHT22;35358;49.342;8.802;2022-12-07T15:02:15;5.20;99.90
49465;DHT22;35358;49.342;8.802;2022-12-07T15:04:41;5.20;99.90
49465;DHT22;35358;49.342;8.802;2022-12-07T15:07:16;5.20;99.90
49465;DHT22;35358;49.342;8.802;2022-12-07T15:09:43;5.10;99.90
49465;DHT22;35358;49.342;8.802;2022-12-07T15:12:09;5.10;99.90
49465;DHT22;35358;49.342;8.802;2022-12-07T15:14:36;5.10;99.90
49465;DHT22;35358;49.342;8.802;2022-12-07T15:17:04;5.00;99.90
49465;DHT22;35358;49.342;8.802;2022-12-07T15:19:32;5.00;99.90
49465;DHT22;35358;49.342;8.802;2022-12-07T15:21:58;5.00;99.90
49465;DHT22;35358;49.342;8.802;2022-12-07T15:24:29;5.10;99.90
49465;DHT22;35358;49.342;8.802;2022-12-07T15:26:54;5.10;99.90
49465;DHT22;35358;49.342;8.802;2022-12-07T15:29:22;5.10;99.90
49465;DHT22;35358;49.342;8.802;2022-12-07T15:31:51;5.00;99.90
49465;DHT22;35358;49.342;8.802;2022-12-07T15:34:17;5.00;99.90
49465;DHT22;35358;49.342;8.802;2022-12-07T15:36:42;5.00;99.90
49465;DHT22;35358;49.342;8.802;2022-12-07T15:39:08;5.00;99.90
49465;DHT22;35358;49.342;8.802;2022-12-07T15:41:39;5.10;99.90
49465;DHT22;35358;49.342;8.802;2022-12-07T15:44:10;5.00;99.90
49465;DHT22;35358;49.342;8.802;2022-12-07T15:46:55;5.00;99.90
49465;DHT22;35358;49.342;8.802;2022-12-07T15:49:22;4.90;99.90
49465;DHT22;35358;49.342;8.802;2022-12-07T15:51:48;4.90;99.90
49465;DHT22;35358;49.342;8.802;2022-12-07T15:54:21;4.90;99.90
49465;DHT22;35358;49.342;8.802;2022-12-07T15:56:47;5.00;99.90
49465;DHT22;35358;49.342;8.802;2022-12-07T15:59:13;4.90;99.90
49465;DHT22;35358;49.342;8.802;2022-12-07T16:01:38;4.90;99.90
49465;DHT22;35358;49.342;8.802;2022-12-07T16:04:04;4.90;99.90
49465;DHT22;35358;49.342;8.802;2022-12-07T16:06:29;4.90;99.90
49465;DHT22;35358;49.342;8.802;2022-12-07T16:08:55;4.90;99.90
49465;DHT22;35358;49.342;8.802;2022-12-07T16:11:23;4.80;99.90
49465;DHT22;35358;49.342;8.802;2022-12-07T16:13:49;4.80;99.90
49465;DHT22;35358;49.342;8.802;2022-12-07T16:16:16;4.80;99.90
49465;DHT22;35358;49.342;8.802;2022-12-07T16:18:44;4.80;99.90
49465;DHT22;35358;49.342;8.802;2022-12-07T16:21:10;4.80;99.90
49465;DHT22;35358;49.342;8.802;2022-12-07T16:23:38;4.80;99.90
49465;DHT22;35358;49.342;8.802;2022-12-07T16:26:08;4.80;99.90
49465;DHT22;35358;49.342;8.802;2022-12-07T16:28:34;4.80;99.90
49465;DHT22;35358;49.342;8.802;2022-12-07T16:31:04;4.80;99.90
49465;DHT22;35358;49.342;8.802;2022-12-07T16:33:35;4.80;99.90
49465;DHT22;35358;49.342;8.802;2022-12-07T16:36:05;4.80;99.90
49465;DHT22;35358;49.342;8.802;2022-12-07T16:38:31;4.80;99.90
49465;DHT22;35358;49.342;8.802;2022-12-07T16:40:57;4.80;99.90
49465;DHT22;35358;49.342;8.802;2022-12-07T16:43:25;4.70;99.90
49465;DHT22;35358;49.342;8.802;2022-12-07T16:45:55;4.70;99.90
49465;DHT22;35358;49.342;8.802;2022-12-07T16:48:21;4.80;99.90
49465;DHT22;35358;49.342;8.802;2022-12-07T16:50:49;4.70;99.90
49465;DHT22;35358;49.342;8.802;2022-12-07T16:53:17;4.70;99.90
49465;DHT22;35358;49.342;8.802;2022-12-07T16:55:44;4.70;99.90
49465;DHT22;35358;49.342;8.802;2022-12-07T16:58:13;4.60;99.90
49465;DHT22;35358;49.342;8.802;2022-12-07T17:00:42;4.60;99.90
49465;DHT22;35358;49.342;8.802;2022-12-07T17:03:10;4.60;99.90
49465;DHT22;35358;49.342;8.802;2022-12-07T17:05:43;4.70;99.90
49465;DHT22;35358;49.342;8.802;2022-12-07T17:08:14;4.60;99.90
49465;DHT22;35358;49.342;8.802;2022-12-07T17:10:43;4.50;99.90
49465;DHT22;35358;49.342;8.802;2022-12-07T17:13:12;4.50;99.90
49465;DHT22;35358;49.342;8.802;2022-12-07T17:16:06;4.60;99.90
49465;DHT22;35358;49.342;8.802;2022-12-07T17:18:33;4.50;99.90
49465;DHT22;35358;49.342;8.802;2022-12-07T17:21:03;4.50;99.90
49465;DHT22;35358;49.342;8.802;2022-12-07T17:23:32;4.60;99.90
49465;DHT22;35358;49.342;8.802;2022-12-07T17:26:07;4.60;99.90
49465;DHT22;35358;49.342;8.802;2022-12-07T17:28:34;4.50;99.90
49465;DHT22;35358;49.342;8.802;2022-12-07T17:31:00;4.50;99.90
49465;DHT22;35358;49.342;8.802;2022-12-07T17:33:26;4.50;99.90
49465;DHT22;35358;49.342;8.802;2022-12-07T17:35:51;4.50;99.90
49465;DHT22;35358;49.342;8.802;2022-12-07T17:38:17;4.50;99.90
49465;DHT22;35358;49.342;8.802;2022-12-07T17:40:45;4.50;99.90
49465;DHT22;35358;49.342;8.802;2022-12-07T17:43:10;4.50;99.90
49465;DHT22;35358;49.342;8.802;2022-12-07T17:45:36;4.50;99.90
49465;DHT22;35358;49.342;8.802;2022-12-07T17:48:04;4.40;99.90
49465;DHT22;35358;49.342;8.802;2022-12-07T17:50:36;4.40;99.90
49465;DHT22;35358;49.342;8.802;2022-12-07T17:53:21;4.40;99.90
49465;DHT22;35358;49.342;8.802;2022-12-07T17:55:47;4.40;99.90
49465;DHT22;35358;49.342;8.802;2022-12-07T17:58:15;4.40;99.90
49465;DHT22;35358;49.342;8.802;2022-12-07T18:00:40;4.40;99.90
49465;DHT22;35358;49.342;8.802;2022-12-07T18:03:06;4.40;99.90